sensor_id;sensor_type;location;lat;lon;timestamp;P1;P2;P0
78063;PMS5003;67429;51.596;-3.264;2023-04-08T00:00:06;9;9;
78063;PMS5003;67429;51.596;-3.264;2023-04-08T00:02:31;8;8;
78063;PMS5003;67429;51.596;-3.264;2023-04-08T00:04:57;7;7;
78063;PMS5003;67429;51.596;-3.264;2023-04-08T00:07:22;7;7;
78063;PMS5003;67429;51.596;-3.264;2023-04-08T00:09:48;10;9;
78063;PMS5003;67429;51.596;-3.264;2023-04-08T00:12:13;9;8;
78063;PMS5003;67429;51.596;-3.264;2023-04-08T00:14:39;9;8;
78063;PMS5003;67429;51.596;-3.264;2023-04-08T00:17:05;8;8;
78063;PMS5003;67429;51.596;-3.264;2023-04-08T00:19:31;8;8;
78063;PMS5003;67429;51.596;-3.264;2023-04-08T00:21:57;7;7;
78063;PMS5003;67429;51.596;-3.264;2023-04-08T00:24:22;6;6;
78063;PMS5003;67429;51.596;-3.264;2023-04-08T00:26:48;7;7;
78063;PMS5003;67429;51.596;-3.264;2023-04-08T00:29:14;6;6;
78063;PMS5003;67429;51.596;-3.264;2023-04-08T00:31:39;7;7;
78063;PMS5003;67429;51.596;-3.264;2023-04-08T00:34:05;7;7;
78063;PMS5003;67429;51.596;-3.264;2023-04-08T00:36:31;8;7;
78063;PMS5003;67429;51.596;-3.264;2023-04-08T00:38:57;7;7;
78063;PMS5003;67429;51.596;-3.264;2023-04-08T00:41:23;6;6;
78063;PMS5003;67429;51.596;-3.264;2023-04-08T00:43:48;7;7;
78063;PMS5003;67429;51.596;-3.264;2023-04-08T00:46:14;6;6;
78063;PMS5003;67429;51.596;-3.264;2023-04-08T00:48:40;6;6;
78063;PMS5003;67429;51.596;-3.264;2023-04-08T00:51:06;6;6;
78063;PMS5003;67429;51.596;-3.264;2023-04-08T00:53:31;9;7;
78063;PMS5003;67429;51.596;-3.264;2023-04-08T00:55:57;7;7;
78063;PMS5003;67429;51.596;-3.264;2023-04-08T00:58:23;8;8;
78063;PMS5003;67429;51.596;-3.264;2023-04-08T01:00:49;8;8;
78063;PMS5003;67429;51.596;-3.264;2023-04-08T01:03:15;12;11;
78063;PMS5003;67429;51.596;-3.264;2023-04-08T01:05:42;6;6;
78063;PMS5003;67429;51.596;-3.264;2023-04-08T01:08:07;8;8;
78063;PMS5003;67429;51.596;-3.264;2023-04-08T01:10:32;6;6;
78063;PMS5003;67429;51.596;-3.264;2023-04-08T01:12:58;9;9;
78063;PMS5003;67429;51.596;-3.264;2023-04-08T01:15:25;7;7;
78063;PMS5003;67429;51.596;-3.264;2023-04-08T01:17:51;7;7;
78063;PMS5003;67429;51.596;-3.264;2023-04-08T01:20:15;8;8;
78063;PMS5003;67429;51.596;-3.264;2023-04-08T01:22:45;7;7;
78063;PMS5003;67429;51.596;-3.264;2023-04-08T01:25:09;8;8;
78063;PMS5003;67429;51.596;-3.264;2023-04-08T01:27:33;8;8;
78063;PMS5003;67429;51.596;-3.264;2023-04-08T01:29:59;9;9;
78063;PMS5003;67429;51.596;-3.264;2023-04-08T01:32:25;7;7;
78063;PMS5003;67429;51.596;-3.264;2023-04-08T01:34:50;9;8;
78063;PMS5003;67429;51.596;-3.264;2023-04-08T01:37:16;11;9;
78063;PMS5003;67429;51.596;-3.264;2023-04-08T01:39:42;7;7;
78063;PMS5003;67429;51.596;-3.264;2023-04-08T01:42:08;8;7;
78063;PMS5003;67429;51.596;-3.264;2023-04-08T01:44:34;8;8;
78063;PMS5003;67429;51.596;-3.264;2023-04-08T01:46:59;7;7;
78063;PMS5003;67429;51.596;-3.264;2023-04-08T01:49:25;8;8;
78063;PMS5003;67429;51.596;-3.264;2023-04-08T01:51:51;7;7;
78063;PMS5003;67429;51.596;-3.264;2023-04-08T01:54:17;11;9;
78063;PMS5003;67429;51.596;-3.264;2023-04-08T01:56:42;6;6;
78063;PMS5003;67429;51.596;-3.264;2023-04-08T01:59:10;8;8;
78063;PMS5003;67429;51.596;-3.264;2023-04-08T02:01:35;8;7;
78063;PMS5003;67429;51.596;-3.264;2023-04-08T02:04:00;8;8;
78063;PMS5003;67429;51.596;-3.264;2023-04-08T02:06:26;9;8;
78063;PMS5003;67429;51.596;-3.264;2023-04-08T02:08:53;11;9;
78063;PMS5003;67429;51.596;-3.264;2023-04-08T02:11:17;13;11;
78063;PMS5003;67429;51.596;-3.264;2023-04-08T02:13:43;8;7;
78063;PMS5003;67429;51.596;-3.264;2023-04-08T02:16:15;7;7;
78063;PMS5003;67429;51.596;-3.264;2023-04-08T02:18:35;8;8;
78063;PMS5003;67429;51.596;-3.264;2023-04-08T02:21:02;11;9;
78063;PMS5003;67429;51.596;-3.264;2023-04-08T02:23:26;12;12;
78063;PMS5003;67429;51.596;-3.264;2023-04-08T02:25:52;11;11;
78063;PMS5003;67429;51.596;-3.264;2023-04-08T02:28:18;11;11;
78063;PMS5003;67429;51.596;-3.264;2023-04-08T02:30:45;9;8;
78063;PMS5003;67429;51.596;-3.264;2023-04-08T02:33:09;8;8;
78063;PMS5003;67429;51.596;-3.264;2023-04-08T02:35:35;10;8;
78063;PMS5003;67429;51.596;-3.264;2023-04-08T02:38:01;11;11;
78063;PMS5003;67429;51.596;-3.264;2023-04-08T02:40:27;11;9;
78063;PMS5003;67429;51.596;-3.264;2023-04-08T02:42:53;11;11;
78063;PMS5003;67429;51.596;-3.264;2023-04-08T02:45:18;12;11;
78063;PMS5003;67429;51.596;-3.264;2023-04-08T02:47:44;11;10;
78063;PMS5003;67429;51.596;-3.264;2023-04-08T02:50:10;11;11;
78063;PMS5003;67429;51.596;-3.264;2023-04-08T02:52:36;10;8;
78063;PMS5003;67429;51.596;-3.264;2023-04-08T02:55:02;11;11;
78063;PMS5003;67429;51.596;-3.264;2023-04-08T02:57:27;10;10;
78063;PMS5003;67429;51.596;-3.264;2023-04-08T02:59:53;11;11;
78063;PMS5003;67429;51.596;-3.264;2023-04-08T03:02:19;8;8;
78063;PMS5003;67429;51.596;-3.264;2023-04-08T03:04:45;12;11;
78063;PMS5003;67429;51.596;-3.264;2023-04-08T03:07:10;11;10;
78063;PMS5003;67429;51.596;-3.264;2023-04-08T03:09:36;12;12;
78063;PMS5003;67429;51.596;-3.264;2023-04-08T03:12:01;8;8;
78063;PMS5003;67429;51.596;-3.264;2023-04-08T03:14:27;10;10;
78063;PMS5003;67429;51.596;-3.264;2023-04-08T03:16:53;12;12;
78063;PMS5003;67429;51.596;-3.264;2023-04-08T03:19:18;10;10;
78063;PMS5003;67429;51.596;-3.264;2023-04-08T03:21:44;11;11;
78063;PMS5003;67429;51.596;-3.264;2023-04-08T03:24:10;7;7;
78063;PMS5003;67429;51.596;-3.264;2023-04-08T03:26:36;13;12;
78063;PMS5003;67429;51.596;-3.264;2023-04-08T03:29:02;12;12;
78063;PMS5003;67429;51.596;-3.264;2023-04-08T03:31:32;12;12;
78063;PMS5003;67429;51.596;-3.264;2023-04-08T03:33:52;12;10;
78063;PMS5003;67429;51.596;-3.264;2023-04-08T03:36:17;11;10;
78063;PMS5003;67429;51.596;-3.264;2023-04-08T03:38:43;12;11;
78063;PMS5003;67429;51.596;-3.264;2023-04-08T03:41:09;8;8;
78063;PMS5003;67429;51.596;-3.264;2023-04-08T03:43:35;11;11;
78063;PMS5003;67429;51.596;-3.264;2023-04-08T03:46:01;12;12;
78063;PMS5003;67429;51.596;-3.264;2023-04-08T03:48:26;10;10;
78063;PMS5003;67429;51.596;-3.264;2023-04-08T03:50:52;10;10;
78063;PMS5003;67429;51.596;-3.264;2023-04-08T03:53:18;12;12;
78063;PMS5003;67429;51.596;-3.264;2023-04-08T03:55:44;11;11;
78063;PMS5003;67429;51.596;-3.264;2023-04-08T03:58:10;12;12;
78063;PMS5003;67429;51.596;-3.264;2023-04-08T04:00:36;12;12;
78063;PMS5003;67429;51.596;-3.264;2023-04-08T04:03:01;11;11;
78063;PMS5003;67429;51.596;-3.264;2023-04-08T04:05:26;15;12;
78063;PMS5003;67429;51.596;-3.264;2023-04-08T04:07:52;13;12;
78063;PMS5003;67429;51.596;-3.264;2023-04-08T04:10:18;13;13;
78063;PMS5003;67429;51.596;-3.264;2023-04-08T04:12:43;12;12;
78063;PMS5003;67429;51.596;-3.264;2023-04-08T04:15:10;11;11;
78063;PMS5003;67429;51.596;-3.264;2023-04-08T04:17:36;12;11;
78063;PMS5003;67429;51.596;-3.264;2023-04-08T04:20:02;14;13;
78063;PMS5003;67429;51.596;-3.264;2023-04-08T04:22:27;11;11;
78063;PMS5003;67429;51.596;-3.264;2023-04-08T04:24:53;11;11;
78063;PMS5003;67429;51.596;-3.264;2023-04-08T04:27:18;10;10;
78063;PMS5003;67429;51.596;-3.264;2023-04-08T04:29:44;12;12;
78063;PMS5003;67429;51.596;-3.264;2023-04-08T04:32:10;10;10;
78063;PMS5003;67429;51.596;-3.264;2023-04-08T04:34:36;12;12;
78063;PMS5003;67429;51.596;-3.264;2023-04-08T04:37:01;12;11;
78063;PMS5003;67429;51.596;-3.264;2023-04-08T04:39:27;12;11;
78063;PMS5003;67429;51.596;-3.264;2023-04-08T04:41:52;14;14;
78063;PMS5003;67429;51.596;-3.264;2023-04-08T04:44:17;11;11;
78063;PMS5003;67429;51.596;-3.264;2023-04-08T04:46:43;12;11;
78063;PMS5003;67429;51.596;-3.264;2023-04-08T04:49:09;13;13;
78063;PMS5003;67429;51.596;-3.264;2023-04-08T04:51:35;13;12;
78063;PMS5003;67429;51.596;-3.264;2023-04-08T04:54:01;11;11;
78063;PMS5003;67429;51.596;-3.264;2023-04-08T04:56:27;13;13;
78063;PMS5003;67429;51.596;-3.264;2023-04-08T04:58:52;13;13;
78063;PMS5003;67429;51.596;-3.264;2023-04-08T05:01:18;13;13;
78063;PMS5003;67429;51.596;-3.264;2023-04-08T05:03:44;11;11;
78063;PMS5003;67429;51.596;-3.264;2023-04-08T05:06:10;13;12;
78063;PMS5003;67429;51.596;-3.264;2023-04-08T05:08:36;12;12;
78063;PMS5003;67429;51.596;-3.264;2023-04-08T05:11:01;15;13;
78063;PMS5003;67429;51.596;-3.264;2023-04-08T05:13:27;13;11;
78063;PMS5003;67429;51.596;-3.264;2023-04-08T05:15:53;12;12;
78063;PMS5003;67429;51.596;-3.264;2023-04-08T05:18:19;10;10;
78063;PMS5003;67429;51.596;-3.264;2023-04-08T05:20:44;15;14;
78063;PMS5003;67429;51.596;-3.264;2023-04-08T05:23:10;13;13;
78063;PMS5003;67429;51.596;-3.264;2023-04-08T05:25:36;13;12;
78063;PMS5003;67429;51.596;-3.264;2023-04-08T05:28:02;12;12;
78063;PMS5003;67429;51.596;-3.264;2023-04-08T05:30:28;15;13;
78063;PMS5003;67429;51.596;-3.264;2023-04-08T05:32:54;13;13;
78063;PMS5003;67429;51.596;-3.264;2023-04-08T05:35:19;14;13;
78063;PMS5003;67429;51.596;-3.264;2023-04-08T05:37:45;11;11;
78063;PMS5003;67429;51.596;-3.264;2023-04-08T05:40:11;13;12;
78063;PMS5003;67429;51.596;-3.264;2023-04-08T05:42:37;11;10;
78063;PMS5003;67429;51.596;-3.264;2023-04-08T05:45:03;13;13;
78063;PMS5003;67429;51.596;-3.264;2023-04-08T05:47:28;15;15;
78063;PMS5003;67429;51.596;-3.264;2023-04-08T05:49:54;12;12;
78063;PMS5003;67429;51.596;-3.264;2023-04-08T05:52:19;12;10;
78063;PMS5003;67429;51.596;-3.264;2023-04-08T05:54:45;11;10;
78063;PMS5003;67429;51.596;-3.264;2023-04-08T05:57:11;11;11;
78063;PMS5003;67429;51.596;-3.264;2023-04-08T05:59:36;16;15;
78063;PMS5003;67429;51.596;-3.264;2023-04-08T06:02:05;15;13;
78063;PMS5003;67429;51.596;-3.264;2023-04-08T06:04:27;13;13;
78063;PMS5003;67429;51.596;-3.264;2023-04-08T06:06:53;13;12;
78063;PMS5003;67429;51.596;-3.264;2023-04-08T06:09:19;15;15;
78063;PMS5003;67429;51.596;-3.264;2023-04-08T06:11:44;10;10;
78063;PMS5003;67429;51.596;-3.264;2023-04-08T06:14:10;13;13;
78063;PMS5003;67429;51.596;-3.264;2023-04-08T06:16:36;12;12;
78063;PMS5003;67429;51.596;-3.264;2023-04-08T06:19:02;13;13;
78063;PMS5003;67429;51.596;-3.264;2023-04-08T06:21:28;14;14;
78063;PMS5003;67429;51.596;-3.264;2023-04-08T06:23:54;19;18;
78063;PMS5003;67429;51.596;-3.264;2023-04-08T06:26:19;14;14;
78063;PMS5003;67429;51.596;-3.264;2023-04-08T06:28:45;13;13;
78063;PMS5003;67429;51.596;-3.264;2023-04-08T06:31:11;12;12;
78063;PMS5003;67429;51.596;-3.264;2023-04-08T06:33:37;16;16;
78063;PMS5003;67429;51.596;-3.264;2023-04-08T06:36:03;14;12;
78063;PMS5003;67429;51.596;-3.264;2023-04-08T06:38:28;13;12;
78063;PMS5003;67429;51.596;-3.264;2023-04-08T06:40:54;10;10;
78063;PMS5003;67429;51.596;-3.264;2023-04-08T06:43:19;11;10;
78063;PMS5003;67429;51.596;-3.264;2023-04-08T06:45:45;11;11;
78063;PMS5003;67429;51.596;-3.264;2023-04-08T06:48:11;10;10;
78063;PMS5003;67429;51.596;-3.264;2023-04-08T06:50:37;13;11;
78063;PMS5003;67429;51.596;-3.264;2023-04-08T06:53:02;13;11;
78063;PMS5003;67429;51.596;-3.264;2023-04-08T06:55:28;12;11;
78063;PMS5003;67429;51.596;-3.264;2023-04-08T06:57:54;10;9;
78063;PMS5003;67429;51.596;-3.264;2023-04-08T07:00:19;10;10;
78063;PMS5003;67429;51.596;-3.264;2023-04-08T07:02:45;12;12;
78063;PMS5003;67429;51.596;-3.264;2023-04-08T07:05:11;11;9;
78063;PMS5003;67429;51.596;-3.264;2023-04-08T07:07:36;12;12;
78063;PMS5003;67429;51.596;-3.264;2023-04-08T07:10:02;9;9;
78063;PMS5003;67429;51.596;-3.264;2023-04-08T07:12:28;8;8;
78063;PMS5003;67429;51.596;-3.264;2023-04-08T07:14:53;9;9;
78063;PMS5003;67429;51.596;-3.264;2023-04-08T07:17:19;9;9;
78063;PMS5003;67429;51.596;-3.264;2023-04-08T07:19:45;10;10;
78063;PMS5003;67429;51.596;-3.264;2023-04-08T07:22:10;9;9;
78063;PMS5003;67429;51.596;-3.264;2023-04-08T07:24:36;9;8;
78063;PMS5003;67429;51.596;-3.264;2023-04-08T07:27:02;7;7;
78063;PMS5003;67429;51.596;-3.264;2023-04-08T07:29:27;8;8;
78063;PMS5003;67429;51.596;-3.264;2023-04-08T07:31:53;8;8;
78063;PMS5003;67429;51.596;-3.264;2023-04-08T07:34:18;9;9;
78063;PMS5003;67429;51.596;-3.264;2023-04-08T07:36:44;6;6;
78063;PMS5003;67429;51.596;-3.264;2023-04-08T07:39:10;8;8;
78063;PMS5003;67429;51.596;-3.264;2023-04-08T07:41:36;9;9;
78063;PMS5003;67429;51.596;-3.264;2023-04-08T07:44:01;8;7;
78063;PMS5003;67429;51.596;-3.264;2023-04-08T07:46:27;7;7;
78063;PMS5003;67429;51.596;-3.264;2023-04-08T07:48:52;9;7;
78063;PMS5003;67429;51.596;-3.264;2023-04-08T07:51:18;8;8;
78063;PMS5003;67429;51.596;-3.264;2023-04-08T07:53:44;8;8;
78063;PMS5003;67429;51.596;-3.264;2023-04-08T07:56:10;9;8;
78063;PMS5003;67429;51.596;-3.264;2023-04-08T07:58:35;7;7;
78063;PMS5003;67429;51.596;-3.264;2023-04-08T08:01:00;6;6;
78063;PMS5003;67429;51.596;-3.264;2023-04-08T08:03:26;8;6;
78063;PMS5003;67429;51.596;-3.264;2023-04-08T08:05:51;8;8;
78063;PMS5003;67429;51.596;-3.264;2023-04-08T08:08:17;5;5;
78063;PMS5003;67429;51.596;-3.264;2023-04-08T08:10:43;7;7;
78063;PMS5003;67429;51.596;-3.264;2023-04-08T08:13:09;8;8;
78063;PMS5003;67429;51.596;-3.264;2023-04-08T08:15:34;7;7;
78063;PMS5003;67429;51.596;-3.264;2023-04-08T08:18:01;6;6;
78063;PMS5003;67429;51.596;-3.264;2023-04-08T08:20:25;6;6;
78063;PMS5003;67429;51.596;-3.264;2023-04-08T08:22:51;6;6;
78063;PMS5003;67429;51.596;-3.264;2023-04-08T08:25:17;6;5;
78063;PMS5003;67429;51.596;-3.264;2023-04-08T08:27:42;6;5;
78063;PMS5003;67429;51.596;-3.264;2023-04-08T08:30:08;6;6;
78063;PMS5003;67429;51.596;-3.264;2023-04-08T08:32:33;5;5;
78063;PMS5003;67429;51.596;-3.264;2023-04-08T08:34:59;4;4;
78063;PMS5003;67429;51.596;-3.264;2023-04-08T08:37:24;8;7;
78063;PMS5003;67429;51.596;-3.264;2023-04-08T08:39:50;6;6;
78063;PMS5003;67429;51.596;-3.264;2023-04-08T08:42:19;5;5;
78063;PMS5003;67429;51.596;-3.264;2023-04-08T08:44:41;6;6;
78063;PMS5003;67429;51.596;-3.264;2023-04-08T08:47:07;6;6;
78063;PMS5003;67429;51.596;-3.264;2023-04-08T08:49:32;7;7;
78063;PMS5003;67429;51.596;-3.264;2023-04-08T08:51:58;8;8;
78063;PMS5003;67429;51.596;-3.264;2023-04-08T08:54:24;9;9;
78063;PMS5003;67429;51.596;-3.264;2023-04-08T08:56:49;10;8;
78063;PMS5003;67429;51.596;-3.264;2023-04-08T08:59:15;7;7;
78063;PMS5003;67429;51.596;-3.264;2023-04-08T09:01:40;8;7;
78063;PMS5003;67429;51.596;-3.264;2023-04-08T09:04:07;10;10;
78063;PMS5003;67429;51.596;-3.264;2023-04-08T09:06:32;10;10;
78063;PMS5003;67429;51.596;-3.264;2023-04-08T09:08:57;8;8;
78063;PMS5003;67429;51.596;-3.264;2023-04-08T09:11:23;8;8;
78063;PMS5003;67429;51.596;-3.264;2023-04-08T09:13:49;10;10;
78063;PMS5003;67429;51.596;-3.264;2023-04-08T09:16:15;9;8;
78063;PMS5003;67429;51.596;-3.264;2023-04-08T09:18:40;8;8;
78063;PMS5003;67429;51.596;-3.264;2023-04-08T09:21:05;9;8;
78063;PMS5003;67429;51.596;-3.264;2023-04-08T09:23:40;7;7;
78063;PMS5003;67429;51.596;-3.264;2023-04-08T09:26:00;9;9;
78063;PMS5003;67429;51.596;-3.264;2023-04-08T09:28:22;10;10;
78063;PMS5003;67429;51.596;-3.264;2023-04-08T09:30:47;11;11;
78063;PMS5003;67429;51.596;-3.264;2023-04-08T09:33:13;8;8;
78063;PMS5003;67429;51.596;-3.264;2023-04-08T09:35:38;12;12;
78063;PMS5003;67429;51.596;-3.264;2023-04-08T09:38:04;9;9;
78063;PMS5003;67429;51.596;-3.264;2023-04-08T09:40:29;8;8;
78063;PMS5003;67429;51.596;-3.264;2023-04-08T09:42:55;13;12;
78063;PMS5003;67429;51.596;-3.264;2023-04-08T09:45:21;13;12;
78063;PMS5003;67429;51.596;-3.264;2023-04-08T09:47:55;10;10;
78063;PMS5003;67429;51.596;-3.264;2023-04-08T09:50:11;12;12;
78063;PMS5003;67429;51.596;-3.264;2023-04-08T09:52:38;9;9;
78063;PMS5003;67429;51.596;-3.264;2023-04-08T09:55:03;10;10;
78063;PMS5003;67429;51.596;-3.264;2023-04-08T09:57:30;13;13;
78063;PMS5003;67429;51.596;-3.264;2023-04-08T09:59:55;12;11;
78063;PMS5003;67429;51.596;-3.264;2023-04-08T10:02:21;11;11;
78063;PMS5003;67429;51.596;-3.264;2023-04-08T10:04:44;10;10;
78063;PMS5003;67429;51.596;-3.264;2023-04-08T10:07:11;11;11;
78063;PMS5003;67429;51.596;-3.264;2023-04-08T10:09:36;10;10;
78063;PMS5003;67429;51.596;-3.264;2023-04-08T10:12:01;10;9;
78063;PMS5003;67429;51.596;-3.264;2023-04-08T10:14:26;14;14;
78063;PMS5003;67429;51.596;-3.264;2023-04-08T10:16:53;14;14;
78063;PMS5003;67429;51.596;-3.264;2023-04-08T10:21:48;11;11;
78063;PMS5003;67429;51.596;-3.264;2023-04-08T10:24:09;13;12;
78063;PMS5003;67429;51.596;-3.264;2023-04-08T10:26:35;11;11;
78063;PMS5003;67429;51.596;-3.264;2023-04-08T10:31:24;13;13;
78063;PMS5003;67429;51.596;-3.264;2023-04-08T10:33:50;11;11;
78063;PMS5003;67429;51.596;-3.264;2023-04-08T10:36:15;12;12;
78063;PMS5003;67429;51.596;-3.264;2023-04-08T10:38:41;13;13;
78063;PMS5003;67429;51.596;-3.264;2023-04-08T10:41:07;17;14;
78063;PMS5003;67429;51.596;-3.264;2023-04-08T10:43:32;11;11;
78063;PMS5003;67429;51.596;-3.264;2023-04-08T10:45:57;15;15;
78063;PMS5003;67429;51.596;-3.264;2023-04-08T10:48:23;14;13;
78063;PMS5003;67429;51.596;-3.264;2023-04-08T10:50:51;14;14;
78063;PMS5003;67429;51.596;-3.264;2023-04-08T10:53:14;16;15;
78063;PMS5003;67429;51.596;-3.264;2023-04-08T10:55:39;14;13;
78063;PMS5003;67429;51.596;-3.264;2023-04-08T10:58:05;14;14;
78063;PMS5003;67429;51.596;-3.264;2023-04-08T11:00:31;15;14;
78063;PMS5003;67429;51.596;-3.264;2023-04-08T11:02:59;18;17;
78063;PMS5003;67429;51.596;-3.264;2023-04-08T11:05:21;16;15;
78063;PMS5003;67429;51.596;-3.264;2023-04-08T11:07:46;15;13;
78063;PMS5003;67429;51.596;-3.264;2023-04-08T11:10:12;14;12;
78063;PMS5003;67429;51.596;-3.264;2023-04-08T11:12:37;12;12;
78063;PMS5003;67429;51.596;-3.264;2023-04-08T11:15:03;16;16;
78063;PMS5003;67429;51.596;-3.264;2023-04-08T11:17:28;16;15;
78063;PMS5003;67429;51.596;-3.264;2023-04-08T11:19:53;16;16;
78063;PMS5003;67429;51.596;-3.264;2023-04-08T11:22:19;14;12;
78063;PMS5003;67429;51.596;-3.264;2023-04-08T11:24:44;16;15;
78063;PMS5003;67429;51.596;-3.264;2023-04-08T11:27:10;15;15;
78063;PMS5003;67429;51.596;-3.264;2023-04-08T11:29:35;13;13;
78063;PMS5003;67429;51.596;-3.264;2023-04-08T11:32:01;11;11;
78063;PMS5003;67429;51.596;-3.264;2023-04-08T11:34:26;14;14;
78063;PMS5003;67429;51.596;-3.264;2023-04-08T11:36:52;15;15;
78063;PMS5003;67429;51.596;-3.264;2023-04-08T11:39:17;17;17;
78063;PMS5003;67429;51.596;-3.264;2023-04-08T11:41:43;20;18;
78063;PMS5003;67429;51.596;-3.264;2023-04-08T11:44:09;14;14;
78063;PMS5003;67429;51.596;-3.264;2023-04-08T11:46:34;13;13;
78063;PMS5003;67429;51.596;-3.264;2023-04-08T11:49:00;18;16;
78063;PMS5003;67429;51.596;-3.264;2023-04-08T11:51:25;15;15;
78063;PMS5003;67429;51.596;-3.264;2023-04-08T11:53:50;17;17;
78063;PMS5003;67429;51.596;-3.264;2023-04-08T11:56:16;15;15;
78063;PMS5003;67429;51.596;-3.264;2023-04-08T11:58:41;18;18;
78063;PMS5003;67429;51.596;-3.264;2023-04-08T12:01:07;14;13;
78063;PMS5003;67429;51.596;-3.264;2023-04-08T12:03:37;13;13;
78063;PMS5003;67429;51.596;-3.264;2023-04-08T12:05:58;18;18;
78063;PMS5003;67429;51.596;-3.264;2023-04-08T12:08:23;17;15;
78063;PMS5003;67429;51.596;-3.264;2023-04-08T12:10:49;20;20;
78063;PMS5003;67429;51.596;-3.264;2023-04-08T12:13:15;15;15;
78063;PMS5003;67429;51.596;-3.264;2023-04-08T12:15:40;16;16;
78063;PMS5003;67429;51.596;-3.264;2023-04-08T12:18:06;18;17;
78063;PMS5003;67429;51.596;-3.264;2023-04-08T12:20:31;21;18;
78063;PMS5003;67429;51.596;-3.264;2023-04-08T12:22:57;16;15;
78063;PMS5003;67429;51.596;-3.264;2023-04-08T12:25:22;16;15;
78063;PMS5003;67429;51.596;-3.264;2023-04-08T12:27:48;16;15;
78063;PMS5003;67429;51.596;-3.264;2023-04-08T12:30:13;17;16;
78063;PMS5003;67429;51.596;-3.264;2023-04-08T12:32:39;17;17;
78063;PMS5003;67429;51.596;-3.264;2023-04-08T12:35:04;16;16;
78063;PMS5003;67429;51.596;-3.264;2023-04-08T12:37:29;16;16;
78063;PMS5003;67429;51.596;-3.264;2023-04-08T12:39:55;17;16;
78063;PMS5003;67429;51.596;-3.264;2023-04-08T12:42:20;15;15;
78063;PMS5003;67429;51.596;-3.264;2023-04-08T12:44:46;15;14;
78063;PMS5003;67429;51.596;-3.264;2023-04-08T12:47:11;16;16;
78063;PMS5003;67429;51.596;-3.264;2023-04-08T12:49:37;17;17;
78063;PMS5003;67429;51.596;-3.264;2023-04-08T12:52:03;15;14;
78063;PMS5003;67429;51.596;-3.264;2023-04-08T12:54:28;16;16;
78063;PMS5003;67429;51.596;-3.264;2023-04-08T12:56:54;16;16;
78063;PMS5003;67429;51.596;-3.264;2023-04-08T12:59:19;17;16;
78063;PMS5003;67429;51.596;-3.264;2023-04-08T13:01:45;16;16;
78063;PMS5003;67429;51.596;-3.264;2023-04-08T13:04:11;15;15;
78063;PMS5003;67429;51.596;-3.264;2023-04-08T13:06:36;13;12;
78063;PMS5003;67429;51.596;-3.264;2023-04-08T13:09:01;13;13;
78063;PMS5003;67429;51.596;-3.264;2023-04-08T13:11:26;13;13;
78063;PMS5003;67429;51.596;-3.264;2023-04-08T13:13:52;13;13;
78063;PMS5003;67429;51.596;-3.264;2023-04-08T13:16:17;14;14;
78063;PMS5003;67429;51.596;-3.264;2023-04-08T13:18:42;16;15;
78063;PMS5003;67429;51.596;-3.264;2023-04-08T13:21:09;18;18;
78063;PMS5003;67429;51.596;-3.264;2023-04-08T13:23:34;16;16;
78063;PMS5003;67429;51.596;-3.264;2023-04-08T13:25:59;15;14;
78063;PMS5003;67429;51.596;-3.264;2023-04-08T13:28:25;15;15;
78063;PMS5003;67429;51.596;-3.264;2023-04-08T13:30:50;16;16;
78063;PMS5003;67429;51.596;-3.264;2023-04-08T13:33:15;15;15;
78063;PMS5003;67429;51.596;-3.264;2023-04-08T13:35:41;20;19;
78063;PMS5003;67429;51.596;-3.264;2023-04-08T13:38:09;16;16;
78063;PMS5003;67429;51.596;-3.264;2023-04-08T13:40:32;14;14;
78063;PMS5003;67429;51.596;-3.264;2023-04-08T13:42:57;12;12;
78063;PMS5003;67429;51.596;-3.264;2023-04-08T13:45:23;14;14;
78063;PMS5003;67429;51.596;-3.264;2023-04-08T13:47:49;15;15;
78063;PMS5003;67429;51.596;-3.264;2023-04-08T13:50:14;16;14;
78063;PMS5003;67429;51.596;-3.264;2023-04-08T13:52:40;16;16;
78063;PMS5003;67429;51.596;-3.264;2023-04-08T13:55:05;15;14;
78063;PMS5003;67429;51.596;-3.264;2023-04-08T13:57:31;15;15;
78063;PMS5003;67429;51.596;-3.264;2023-04-08T13:59:56;15;15;
78063;PMS5003;67429;51.596;-3.264;2023-04-08T14:02:21;14;14;
78063;PMS5003;67429;51.596;-3.264;2023-04-08T14:04:47;15;15;
78063;PMS5003;67429;51.596;-3.264;2023-04-08T14:07:13;12;12;
78063;PMS5003;67429;51.596;-3.264;2023-04-08T14:09:38;12;12;
78063;PMS5003;67429;51.596;-3.264;2023-04-08T14:12:04;14;13;
78063;PMS5003;67429;51.596;-3.264;2023-04-08T14:14:29;15;14;
78063;PMS5003;67429;51.596;-3.264;2023-04-08T14:16:54;14;14;
78063;PMS5003;67429;51.596;-3.264;2023-04-08T14:19:20;11;11;
78063;PMS5003;67429;51.596;-3.264;2023-04-08T14:21:46;13;12;
78063;PMS5003;67429;51.596;-3.264;2023-04-08T14:24:11;13;13;
78063;PMS5003;67429;51.596;-3.264;2023-04-08T14:26:36;14;13;
78063;PMS5003;67429;51.596;-3.264;2023-04-08T14:29:02;15;15;
78063;PMS5003;67429;51.596;-3.264;2023-04-08T14:31:27;11;11;
78063;PMS5003;67429;51.596;-3.264;2023-04-08T14:33:53;13;13;
78063;PMS5003;67429;51.596;-3.264;2023-04-08T14:36:18;16;16;
78063;PMS5003;67429;51.596;-3.264;2023-04-08T14:38:44;16;15;
78063;PMS5003;67429;51.596;-3.264;2023-04-08T14:41:09;18;17;
78063;PMS5003;67429;51.596;-3.264;2023-04-08T14:43:35;13;13;
78063;PMS5003;67429;51.596;-3.264;2023-04-08T14:46:00;17;16;
78063;PMS5003;67429;51.596;-3.264;2023-04-08T14:48:26;16;15;
78063;PMS5003;67429;51.596;-3.264;2023-04-08T14:50:52;16;16;
78063;PMS5003;67429;51.596;-3.264;2023-04-08T14:53:17;17;17;
78063;PMS5003;67429;51.596;-3.264;2023-04-08T14:55:42;14;13;
78063;PMS5003;67429;51.596;-3.264;2023-04-08T14:58:08;16;15;
78063;PMS5003;67429;51.596;-3.264;2023-04-08T15:00:33;16;15;
78063;PMS5003;67429;51.596;-3.264;2023-04-08T15:02:59;14;14;
78063;PMS5003;67429;51.596;-3.264;2023-04-08T15:05:24;14;13;
78063;PMS5003;67429;51.596;-3.264;2023-04-08T15:07:50;14;13;
78063;PMS5003;67429;51.596;-3.264;2023-04-08T15:10:15;14;14;
78063;PMS5003;67429;51.596;-3.264;2023-04-08T15:12:41;15;15;
78063;PMS5003;67429;51.596;-3.264;2023-04-08T15:15:07;15;15;
78063;PMS5003;67429;51.596;-3.264;2023-04-08T15:17:32;15;15;
78063;PMS5003;67429;51.596;-3.264;2023-04-08T15:19:58;17;16;
78063;PMS5003;67429;51.596;-3.264;2023-04-08T15:22:23;15;14;
78063;PMS5003;67429;51.596;-3.264;2023-04-08T15:24:49;12;12;
78063;PMS5003;67429;51.596;-3.264;2023-04-08T15:27:19;13;13;
78063;PMS5003;67429;51.596;-3.264;2023-04-08T15:29:40;12;12;
78063;PMS5003;67429;51.596;-3.264;2023-04-08T15:32:05;14;13;
78063;PMS5003;67429;51.596;-3.264;2023-04-08T15:34:31;13;13;
78063;PMS5003;67429;51.596;-3.264;2023-04-08T15:36:56;12;12;
78063;PMS5003;67429;51.596;-3.264;2023-04-08T15:39:22;12;12;
78063;PMS5003;67429;51.596;-3.264;2023-04-08T15:41:47;12;12;
78063;PMS5003;67429;51.596;-3.264;2023-04-08T15:44:13;11;11;
78063;PMS5003;67429;51.596;-3.264;2023-04-08T15:46:39;13;13;
78063;PMS5003;67429;51.596;-3.264;2023-04-08T15:49:04;12;12;
78063;PMS5003;67429;51.596;-3.264;2023-04-08T15:51:30;12;12;
78063;PMS5003;67429;51.596;-3.264;2023-04-08T15:53:55;9;9;
78063;PMS5003;67429;51.596;-3.264;2023-04-08T15:56:21;11;11;
78063;PMS5003;67429;51.596;-3.264;2023-04-08T15:58:46;10;10;
78063;PMS5003;67429;51.596;-3.264;2023-04-08T16:01:12;10;10;
78063;PMS5003;67429;51.596;-3.264;2023-04-08T16:03:37;11;10;